createdAt,value
2022-08-14T00:03:03.748Z,3.13
2022-08-14T00:06:25.369Z,3.70
2022-08-14T00:09:33.172Z,3.25
2022-08-14T00:12:40.351Z,3.20
2022-08-14T00:15:48.381Z,3.60
2022-08-14T00:19:06.478Z,3.13
2022-08-14T00:22:56.521Z,3.58
2022-08-14T00:25:58.863Z,3.30
2022-08-14T00:29:11.327Z,2.80
2022-08-14T00:36:39.243Z,3.00
2022-08-14T00:39:06.728Z,3.00
2022-08-14T00:42:52.611Z,2.90
2022-08-14T00:45:39.564Z,3.25
2022-08-14T00:48:49.200Z,3.20
2022-08-14T00:51:54.154Z,3.28
2022-08-14T00:55:01.425Z,2.97
2022-08-14T00:58:27.866Z,3.22
2022-08-14T01:01:38.342Z,3.20
2022-08-14T01:04:54.407Z,3.00
2022-08-14T01:08:00.364Z,3.00
2022-08-14T01:11:06.757Z,3.50
2022-08-14T01:14:25.880Z,3.03
2022-08-14T01:17:54.275Z,3.25
2022-08-14T01:21:12.573Z,2.72
2022-08-14T01:24:28.765Z,3.17
2022-08-14T01:27:53.508Z,2.63
2022-08-14T01:31:02.119Z,3.15
2022-08-14T01:35:19.976Z,2.65
2022-08-14T01:40:42.080Z,2.63
2022-08-14T01:43:56.647Z,2.70
2022-08-14T01:47:22.118Z,3.15
2022-08-14T01:53:35.669Z,2.90
2022-08-14T01:56:41.839Z,2.85
2022-08-14T01:59:51.174Z,2.75
2022-08-14T02:02:57.991Z,2.90
2022-08-14T02:06:32.841Z,3.17
2022-08-14T02:09:36.315Z,2.75
2022-08-14T02:12:42.879Z,2.63
2022-08-14T02:15:48.349Z,2.30
2022-08-14T02:18:55.801Z,3.20
2022-08-14T02:22:10.559Z,3.10
2022-08-14T02:25:16.780Z,3.20
2022-08-14T02:28:56.360Z,2.70
2022-08-14T02:31:50.511Z,3.00
2022-08-14T02:34:55.173Z,3.38
2022-08-14T02:41:11.091Z,2.90
2022-08-14T02:44:16.365Z,3.20
2022-08-14T02:47:35.083Z,2.92
2022-08-14T02:50:44.646Z,3.10
2022-08-14T02:53:57.471Z,2.95
2022-08-14T02:57:14.049Z,2.72
2022-08-14T03:00:23.411Z,2.70
2022-08-14T03:03:31.673Z,2.80
2022-08-14T03:06:57.517Z,3.38
2022-08-14T03:10:26.968Z,3.45
2022-08-14T03:13:26.132Z,3.47
2022-08-14T03:16:38.618Z,3.40
2022-08-14T03:19:43.838Z,3.00
2022-08-14T03:22:50.837Z,3.13
2022-08-14T03:25:56.314Z,3.15
2022-08-14T03:29:02.172Z,2.80
2022-08-14T03:32:11.493Z,3.25
2022-08-14T03:35:30.863Z,3.25
2022-08-14T03:39:12.797Z,3.35
2022-08-14T03:42:19.405Z,3.00
2022-08-14T03:45:35.029Z,2.90
2022-08-14T03:48:45.836Z,2.72
2022-08-14T03:52:07.841Z,3.20
2022-08-14T03:55:31.368Z,2.75
2022-08-14T03:58:43.143Z,2.95
2022-08-14T04:01:58.194Z,3.15
2022-08-14T04:05:13.054Z,2.92
2022-08-14T04:08:22.928Z,2.95
2022-08-14T04:11:36.898Z,2.90
2022-08-14T04:14:46.917Z,3.70
2022-08-14T04:17:55.163Z,3.00
2022-08-14T04:21:05.191Z,3.08
2022-08-14T04:24:17.905Z,3.20
2022-08-14T04:27:24.619Z,3.10
2022-08-14T04:30:32.979Z,3.28
2022-08-14T04:33:41.106Z,3.33
2022-08-14T04:37:05.089Z,3.40
2022-08-14T04:40:32.514Z,3.38
2022-08-14T04:43:43.136Z,3.58
2022-08-14T04:47:06.591Z,3.35
2022-08-14T04:50:14.114Z,3.00
2022-08-14T04:53:23.215Z,3.67
2022-08-14T04:56:34.803Z,3.22
2022-08-14T04:59:39.632Z,3.10
2022-08-14T05:02:47.738Z,3.17
2022-08-14T05:05:55.921Z,3.38
2022-08-14T05:09:03.845Z,3.10
2022-08-14T05:13:11.656Z,3.20
2022-08-14T05:15:41.013Z,3.53
2022-08-14T05:19:18.319Z,3.00
2022-08-14T05:22:16.701Z,2.92
2022-08-14T05:25:23.886Z,3.00
2022-08-14T05:28:32.440Z,3.20
2022-08-14T05:31:41.194Z,3.88
2022-08-14T05:34:46.173Z,3.10
2022-08-14T05:37:57.189Z,3.60
2022-08-14T05:41:06.497Z,3.10
2022-08-14T05:44:13.668Z,3.42
2022-08-14T05:47:22.051Z,3.40
2022-08-14T05:50:26.932Z,3.05
2022-08-14T05:53:34.979Z,3.10
2022-08-14T05:56:41.252Z,3.08
2022-08-14T05:59:47.058Z,3.15
2022-08-14T06:02:52.898Z,3.20
2022-08-14T06:05:58.187Z,3.40
2022-08-14T06:09:02.876Z,2.65
2022-08-14T06:12:07.941Z,3.45
2022-08-14T06:15:13.555Z,3.10
2022-08-14T06:18:19.150Z,2.97
2022-08-14T06:21:24.799Z,3.20
2022-08-14T06:24:35.014Z,2.80
2022-08-14T06:27:44.077Z,3.45
2022-08-14T06:30:51.677Z,2.67
2022-08-14T06:35:10.642Z,2.80
2022-08-14T06:37:27.035Z,3.05
2022-08-14T06:40:40.309Z,2.95
2022-08-14T06:43:48.218Z,3.03
2022-08-14T06:46:54.194Z,2.70
2022-08-14T06:49:59.758Z,2.90
2022-08-14T06:53:04.451Z,2.65
2022-08-14T06:56:09.676Z,2.53
2022-08-14T06:59:19.981Z,2.70
2022-08-14T07:02:43.642Z,2.95
2022-08-14T07:05:57.772Z,2.50
2022-08-14T07:09:05.749Z,2.65
2022-08-14T07:12:34.818Z,2.42
2022-08-14T07:15:39.659Z,2.63
2022-08-14T07:18:46.884Z,2.53
2022-08-14T07:21:55.900Z,2.50
2022-08-14T07:25:03.864Z,2.28
2022-08-14T07:28:21.546Z,2.40
2022-08-14T07:31:26.561Z,2.55
2022-08-14T07:34:40.644Z,2.35
2022-08-14T07:37:49.865Z,2.75
2022-08-14T07:40:58.151Z,2.80
2022-08-14T07:44:29.215Z,2.53
2022-08-14T07:47:28.605Z,2.20
2022-08-14T07:50:34.519Z,2.70
2022-08-14T07:53:41.508Z,2.20
2022-08-14T07:56:48.986Z,2.30
2022-08-14T07:59:56.470Z,2.70
2022-08-14T08:03:02.217Z,2.67
2022-08-14T08:06:10.415Z,2.80
2022-08-14T08:09:32.165Z,3.03
2022-08-14T08:12:37.826Z,2.47
2022-08-14T08:15:47.051Z,2.35
2022-08-14T08:18:55.239Z,2.50
2022-08-14T08:22:06.671Z,3.07
2022-08-14T08:25:18.145Z,2.83
2022-08-14T08:28:29.175Z,2.72
2022-08-14T08:31:35.280Z,2.63
2022-08-14T08:34:52.457Z,2.70
2022-08-14T08:39:14.057Z,3.00
2022-08-14T08:41:43.489Z,3.25
2022-08-14T08:44:55.992Z,3.33
2022-08-14T08:48:00.630Z,3.28
2022-08-14T08:51:34.867Z,3.47
2022-08-14T08:54:41.937Z,3.33
2022-08-14T08:57:46.590Z,3.17
2022-08-14T09:00:55.001Z,2.67
2022-08-14T09:04:13.912Z,3.15
2022-08-14T09:07:28.136Z,3.00
2022-08-14T09:10:33.478Z,2.80
2022-08-14T09:13:38.234Z,2.90
2022-08-14T09:16:48.130Z,3.80
2022-08-14T09:19:53.144Z,4.18
2022-08-14T09:22:59.314Z,4.45
2022-08-14T09:26:04.942Z,4.38
2022-08-14T09:29:25.269Z,16.33
2022-08-14T09:32:58.603Z,5.30
2022-08-14T09:36:29.195Z,3.60
2022-08-14T09:40:16.614Z,3.50
2022-08-14T09:43:56.651Z,3.58
2022-08-14T09:47:01.540Z,3.72
2022-08-14T09:50:30.779Z,3.72
2022-08-14T09:54:19.586Z,4.90
2022-08-14T09:57:14.891Z,6.78
2022-08-14T10:00:38.259Z,6.50
2022-08-14T10:04:15.031Z,7.55
2022-08-14T10:07:34.825Z,6.40
2022-08-14T10:10:42.366Z,7.43
2022-08-14T10:13:56.998Z,8.40
2022-08-14T10:17:04.895Z,7.30
2022-08-14T10:20:40.856Z,6.35
2022-08-14T10:23:48.602Z,6.80
2022-08-14T10:27:02.133Z,6.00
2022-08-14T10:30:22.683Z,6.55
2022-08-14T10:33:33.857Z,6.68
2022-08-14T10:37:02.575Z,5.88
2022-08-14T10:40:10.407Z,5.43
2022-08-14T10:43:23.217Z,5.43
2022-08-14T10:47:40.821Z,5.72
2022-08-14T10:50:02.441Z,5.72
2022-08-14T10:53:08.225Z,8.80
2022-08-14T10:56:22.010Z,9.02
2022-08-14T10:59:57.227Z,12.60
2022-08-14T11:03:26.463Z,13.05
2022-08-14T11:06:32.333Z,12.27
2022-08-14T11:09:41.870Z,12.13
2022-08-14T11:12:51.772Z,11.52
2022-08-14T11:16:02.750Z,11.23
2022-08-14T11:19:08.999Z,10.65
2022-08-14T11:22:55.888Z,11.18
2022-08-14T11:25:53.569Z,14.77
2022-08-14T11:29:01.545Z,15.70
2022-08-14T11:32:09.069Z,13.18
2022-08-14T11:35:18.408Z,6.22
2022-08-14T11:38:25.532Z,4.50
2022-08-14T11:41:38.191Z,5.72
2022-08-14T11:44:47.022Z,4.13
2022-08-14T11:48:13.663Z,4.15
2022-08-14T11:51:24.482Z,3.90
2022-08-14T11:54:33.754Z,4.80
2022-08-14T11:57:59.602Z,5.80
2022-08-14T12:01:09.516Z,5.40
2022-08-14T12:04:31.916Z,5.90
2022-08-14T12:07:43.198Z,5.20
2022-08-14T12:10:59.666Z,4.85
2022-08-14T12:14:34.739Z,5.80
2022-08-14T12:17:55.947Z,5.88
2022-08-14T12:21:21.691Z,7.10
2022-08-14T12:24:35.910Z,8.20
2022-08-14T12:31:00.463Z,8.93
2022-08-14T12:34:10.479Z,8.50
2022-08-14T12:37:15.629Z,7.05
2022-08-14T12:40:27.083Z,7.60
2022-08-14T12:43:48.272Z,6.05
2022-08-14T12:47:03.431Z,6.30
2022-08-14T12:50:14.886Z,5.03
2022-08-14T12:53:22.286Z,5.00
2022-08-14T12:56:34.093Z,4.32
2022-08-14T12:59:42.762Z,4.55
2022-08-14T13:02:55.152Z,4.60
2022-08-14T13:06:03.740Z,4.75
2022-08-14T13:09:11.388Z,3.65
2022-08-14T13:12:34.867Z,3.75
2022-08-14T13:15:46.240Z,3.85
2022-08-14T13:18:57.459Z,4.75
2022-08-14T13:22:10.212Z,3.70
2022-08-14T13:25:30.612Z,3.70
2022-08-14T13:29:02.565Z,3.90
2022-08-14T13:32:06.431Z,4.13
2022-08-14T13:35:17.683Z,3.58
2022-08-14T13:38:27.995Z,3.67
2022-08-14T13:41:36.272Z,3.92
2022-08-14T13:44:43.367Z,4.07
2022-08-14T13:47:53.235Z,4.70
2022-08-14T13:51:01.700Z,4.28
2022-08-14T13:54:11.608Z,4.57
2022-08-14T13:57:18.654Z,4.82
2022-08-14T14:00:32.711Z,4.35
2022-08-14T14:03:41.911Z,5.47
2022-08-14T14:06:52.901Z,5.82
2022-08-14T14:10:06.420Z,5.80
2022-08-14T14:13:18.598Z,6.32
2022-08-14T14:16:30.921Z,6.20
2022-08-14T14:19:36.746Z,6.45
2022-08-14T14:23:01.299Z,5.95
2022-08-14T14:26:24.087Z,6.18
2022-08-14T14:29:37.469Z,6.50
2022-08-14T14:33:02.256Z,6.10
2022-08-14T14:36:16.172Z,6.05
2022-08-14T14:39:30.446Z,5.93
2022-08-14T14:42:45.436Z,5.43
2022-08-14T14:45:55.927Z,6.30
2022-08-14T14:49:05.723Z,5.95
2022-08-14T14:52:23.136Z,5.60
2022-08-14T14:55:54.389Z,6.00
2022-08-14T14:58:58.670Z,5.35
2022-08-14T15:02:21.178Z,5.88
2022-08-14T15:05:33.119Z,5.82
2022-08-14T15:08:56.796Z,6.25
2022-08-14T15:12:16.030Z,5.78
2022-08-14T15:15:28.561Z,5.43
2022-08-14T15:18:46.807Z,4.60
2022-08-14T15:21:53.858Z,5.07
2022-08-14T15:25:03.946Z,4.80
2022-08-14T15:28:12.737Z,5.13
2022-08-14T15:31:20.559Z,4.28
2022-08-14T15:34:44.342Z,4.50
2022-08-14T15:37:55.967Z,4.63
2022-08-14T15:41:08.620Z,4.70
2022-08-14T15:44:26.296Z,4.93
2022-08-14T15:47:35.774Z,4.00
2022-08-14T15:50:52.102Z,5.10
2022-08-14T15:53:59.732Z,4.70
2022-08-14T15:57:09.738Z,6.03
2022-08-14T16:00:43.449Z,6.05
2022-08-14T16:03:58.448Z,5.60
2022-08-14T16:07:03.358Z,5.60
2022-08-14T16:10:28.917Z,6.25
2022-08-14T16:13:42.938Z,7.50
2022-08-14T16:17:00.695Z,7.28
2022-08-14T16:20:09.401Z,7.10
2022-08-14T16:23:20.945Z,7.50
2022-08-14T16:26:29.266Z,7.85
2022-08-14T16:29:40.789Z,6.75
2022-08-14T16:32:55.382Z,6.90
2022-08-14T16:36:19.681Z,6.60
2022-08-14T16:39:39.677Z,7.72
2022-08-14T16:43:03.890Z,7.03
2022-08-14T16:46:25.575Z,7.75
2022-08-14T16:50:03.344Z,6.75
2022-08-14T16:53:02.853Z,7.45
2022-08-14T16:56:23.457Z,7.07
2022-08-14T16:59:30.712Z,4.88
2022-08-14T17:03:08.591Z,4.25
2022-08-14T17:06:42.911Z,4.78
2022-08-14T17:09:51.621Z,3.70
2022-08-14T17:13:20.519Z,4.28
2022-08-14T17:16:40.167Z,4.95
2022-08-14T17:23:10.804Z,6.80
2022-08-14T17:26:38.579Z,5.80
2022-08-14T17:29:58.644Z,5.78
2022-08-14T17:33:14.364Z,4.90
2022-08-14T17:36:24.631Z,4.82
2022-08-14T17:39:39.775Z,4.60
2022-08-14T17:42:58.924Z,4.25
2022-08-14T17:46:18.048Z,4.30
2022-08-14T17:49:28.317Z,4.43
2022-08-14T17:52:50.158Z,4.72
2022-08-14T17:56:01.378Z,4.78
2022-08-14T17:59:11.695Z,4.50
2022-08-14T18:02:31.236Z,4.65
2022-08-14T18:06:08.510Z,4.95
2022-08-14T18:09:25.097Z,5.47
2022-08-14T18:12:44.001Z,5.10
2022-08-14T18:15:51.989Z,5.40
2022-08-14T18:18:56.900Z,5.45
2022-08-14T18:22:24.033Z,5.35
2022-08-14T18:25:41.873Z,5.60
2022-08-14T18:28:52.372Z,7.05
2022-08-14T18:31:57.124Z,5.28
2022-08-14T18:35:11.020Z,5.43
2022-08-14T18:38:55.203Z,5.75
2022-08-14T18:42:24.704Z,5.90
2022-08-14T18:46:01.468Z,6.55
2022-08-14T18:49:17.640Z,6.22
2022-08-14T18:52:33.729Z,6.32
2022-08-14T18:55:53.898Z,5.85
2022-08-14T18:59:04.531Z,5.50
2022-08-14T21:16:33.797Z,2.50
2022-08-14T21:19:37.043Z,2.78
2022-08-14T21:22:53.847Z,3.10
2022-08-14T21:26:05.531Z,3.22
2022-08-14T21:29:28.301Z,2.90
2022-08-14T21:32:50.511Z,2.40
2022-08-14T21:36:11.540Z,2.63
2022-08-14T21:39:27.580Z,2.33
2022-08-14T21:42:40.646Z,2.28
2022-08-14T21:45:53.288Z,2.30
2022-08-14T21:49:02.056Z,2.40
2022-08-14T21:52:51.527Z,17.08
2022-08-14T21:55:43.833Z,2.45
2022-08-14T22:02:10.850Z,2.30
2022-08-14T22:05:42.964Z,2.78
2022-08-14T22:08:52.801Z,2.55
2022-08-14T22:12:00.092Z,2.88
2022-08-14T22:15:08.182Z,3.00
2022-08-14T22:18:20.681Z,2.50
2022-08-14T22:21:25.621Z,2.88
2022-08-14T22:24:38.590Z,3.33
2022-08-14T22:27:59.220Z,2.85
2022-08-14T22:31:22.288Z,2.90
2022-08-14T22:34:31.150Z,3.05
2022-08-14T22:37:44.976Z,2.45
2022-08-14T22:41:12.213Z,2.67
2022-08-14T22:44:24.897Z,2.63
2022-08-14T22:47:40.650Z,2.90
2022-08-14T22:50:48.980Z,2.75
2022-08-14T22:53:55.690Z,2.90
2022-08-14T22:57:07.128Z,3.35
2022-08-14T23:00:25.597Z,2.60
2022-08-14T23:03:42.230Z,3.58
2022-08-14T23:07:03.666Z,3.28
2022-08-14T23:10:32.493Z,3.38
2022-08-14T23:13:43.610Z,3.30
2022-08-14T23:16:57.243Z,2.80
2022-08-14T23:20:18.748Z,2.95
2022-08-14T23:23:24.154Z,2.53
2022-08-14T23:26:48.967Z,3.00
2022-08-14T23:30:00.736Z,2.65
2022-08-14T23:33:08.271Z,3.03
2022-08-14T23:36:32.146Z,3.78
2022-08-14T23:39:43.084Z,2.88
2022-08-14T23:43:21.057Z,3.35
2022-08-14T23:46:34.525Z,2.90
2022-08-14T23:50:00.200Z,2.80
2022-08-14T23:53:47.903Z,2.78
2022-08-14T23:57:02.641Z,2.70
